Time;durP1;ratioP1;P1;durP2;ratioP2;P2;SDS_P1;SDS_P2;PMS_P1;PMS_P2;Temp;Humidity;BMP_temperature;BMP_pressure;BME280_temperature;BME280_humidity;BME280_pressure;Samples;Min_cycle;Max_cycle;Signal;HPM_P1;HPM_P2
2024/04/14 00:01:47;;;;;;;;;2.00;2.00;;;;;20.78;58.12;101860.59;5177738;27;44041;-70
2024/04/14 00:04:13;;;;;;;;;3.25;3.00;;;;;20.72;58.83;101850.09;5219095;27;43916;-70
2024/04/14 00:06:40;;;;;;;;;3.50;3.00;;;;;20.79;58.97;101869.59;5219143;27;44059;-70
2024/04/14 00:09:06;;;;;;;;;4.00;4.00;;;;;20.86;57.86;101889.97;5210503;27;43939;-70
2024/04/14 00:11:32;;;;;;;;;4.00;3.75;;;;;20.66;58.03;101851.28;5190010;27;43993;-70
2024/04/14 00:13:57;;;;;;;;;4.00;4.00;;;;;20.65;57.64;101851.41;5201042;27;43789;-70
2024/04/14 00:16:22;;;;;;;;;3.75;3.75;;;;;20.62;57.88;101859.69;5187914;27;45114;-70
2024/04/14 00:18:50;;;;;;;;;2.75;2.50;;;;;20.51;57.63;101857.56;5195767;27;43806;-70
2024/04/14 00:21:15;;;;;;;;;3.00;3.00;;;;;20.63;57.65;101886.75;5199766;27;44148;-70
2024/04/14 00:23:44;;;;;;;;;4.00;2.25;;;;;20.43;58.13;101874.28;5207160;27;44056;-70
2024/04/14 00:26:10;;;;;;;;;5.00;4.00;;;;;20.59;58.19;101900.53;5186121;27;44277;-70
2024/04/14 00:28:35;;;;;;;;;4.25;4.25;;;;;20.35;57.83;101863.84;5185444;27;44266;-70
2024/04/14 00:31:01;;;;;;;;;5.25;5.25;;;;;20.34;57.92;101863.94;5185995;27;44114;-70
2024/04/14 00:33:30;;;;;;;;;3.75;3.75;;;;;20.32;58.62;101869.44;5191551;27;43845;-70
2024/04/14 00:35:57;;;;;;;;;4.75;4.75;;;;;20.52;58.51;101908.16;5196292;27;46616;-70
2024/04/14 00:38:23;;;;;;;;;5.00;5.00;;;;;20.29;57.45;101880.44;5177259;27;43987;-70
2024/04/14 00:40:48;;;;;;;;;3.50;3.50;;;;;20.29;57.96;101880.44;5210868;27;44298;-70
2024/04/14 00:43:16;;;;;;;;;3.00;3.00;;;;;20.25;56.69;101878.88;5166876;27;43955;-70
2024/04/14 00:45:43;;;;;;;;;5.00;3.00;;;;;20.27;56.81;101887.81;5196626;27;43935;-70
2024/04/14 00:48:09;;;;;;;;;3.25;3.25;;;;;20.31;55.64;101904.78;5190409;27;43865;-70
2024/04/14 00:50:34;;;;;;;;;3.00;3.00;;;;;20.16;55.71;101895.63;5185720;27;44065;-70
2024/04/14 00:53:00;;;;;;;;;3.00;3.00;;;;;19.92;55.16;101865.34;5196136;27;44190;-70
2024/04/14 00:55:26;;;;;;;;;5.25;4.00;;;;;20.05;54.96;101888.09;5197662;27;44973;-70
2024/04/14 00:57:52;;;;;;;;;2.25;2.00;;;;;20.01;54.67;101891.94;5199584;27;43927;-70
2024/04/14 01:00:18;;;;;;;;;3.00;3.00;;;;;19.98;54.63;101892.97;5191450;27;43937;-70
2024/04/14 01:02:43;;;;;;;;;4.00;4.00;;;;;20.03;54.71;101909.00;5220920;27;44094;-70
2024/04/14 01:05:09;;;;;;;;;3.75;3.00;;;;;19.80;54.10;101883.13;5221150;27;43988;-70
2024/04/14 01:07:36;;;;;;;;;3.00;3.00;;;;;19.99;53.59;101913.69;5220001;27;43841;-70
2024/04/14 01:10:02;;;;;;;;;2.00;2.00;;;;;19.78;52.46;101890.47;5220464;27;44067;-70
2024/04/14 01:12:27;;;;;;;;;2.75;2.00;;;;;19.93;52.69;101923.97;5221601;27;43809;-70
2024/04/14 01:14:53;;;;;;;;;3.00;2.00;;;;;19.72;51.75;101896.16;5197429;27;45246;-70
2024/04/14 01:17:20;;;;;;;;;1.00;1.00;;;;;19.84;51.41;101913.66;5162249;27;43901;-70
2024/04/14 01:19:46;;;;;;;;;1.25;1.25;;;;;19.71;50.50;101903.44;5190939;27;43965;-70
2024/04/14 01:22:11;;;;;;;;;2.50;1.00;;;;;19.79;51.63;101917.47;5218018;27;43943;-70
2024/04/14 01:24:36;;;;;;;;;2.75;2.75;;;;;19.63;50.03;101895.69;5171257;27;46645;-70
2024/04/14 01:27:02;;;;;;;;;3.50;2.00;;;;;19.61;49.21;101897.63;5184021;27;43953;-70
2024/04/14 01:29:27;;;;;;;;;2.00;1.00;;;;;19.54;50.35;101898.00;5207951;27;44300;-70
2024/04/14 01:31:53;;;;;;;;;1.00;1.00;;;;;19.63;49.98;101913.78;5221124;27;43888;-70
2024/04/14 01:34:19;;;;;;;;;1.50;1.00;;;;;19.46;51.23;101901.09;5220683;27;45161;-70
2024/04/14 01:36:45;;;;;;;;;2.50;1.75;;;;;19.44;50.71;101911.13;5189623;27;44205;-70
2024/04/14 01:39:10;;;;;;;;;2.25;1.50;;;;;19.42;49.54;101911.22;5219675;27;43988;-70
2024/04/14 01:41:36;;;;;;;;;2.00;2.00;;;;;19.41;50.75;101914.00;5191474;27;43801;-70
2024/04/14 01:44:01;;;;;;;;;2.00;2.00;;;;;19.32;50.08;101911.78;5185833;27;46890;-70
2024/04/14 01:46:26;;;;;;;;;2.00;2.00;;;;;19.31;49.94;101912.72;5218628;27;43853;-70
2024/04/14 01:48:52;;;;;;;;;3.00;3.00;;;;;19.47;51.71;101940.75;5218393;27;44338;-70
2024/04/14 01:51:17;;;;;;;;;2.25;2.25;;;;;19.20;50.16;101891.63;5190325;27;44255;-70
2024/04/14 01:53:42;;;;;;;;;3.50;3.50;;;;;19.21;50.51;101899.66;5187457;27;48586;-70
2024/04/14 01:56:08;;;;;;;;;2.50;2.50;;;;;19.19;51.24;101925.91;5157614;27;43879;-70
2024/04/14 01:58:33;;;;;;;;;6.25;3.00;;;;;19.12;51.03;101921.75;5187766;27;43849;-70
2024/04/14 02:00:59;;;;;;;;;2.00;2.00;;;;;19.13;51.28;101923.53;5167554;27;44084;-70
2024/04/14 02:03:24;;;;;;;;;2.25;2.00;;;;;18.99;50.91;101904.38;5184544;27;45852;-70
2024/04/14 02:05:56;;;;;;;;;1.00;1.00;;;;;19.06;51.34;101916.63;5214004;27;46293;-70
2024/04/14 02:08:22;;;;;;;;;2.00;2.00;;;;;19.20;50.97;101954.72;5220243;27;44103;-70
2024/04/14 02:10:47;;;;;;;;;3.00;3.00;;;;;19.03;51.70;101925.81;5191077;27;44263;-70
2024/04/14 02:13:12;;;;;;;;;3.00;3.00;;;;;19.02;51.41;101925.88;5220443;27;43962;-70
2024/04/14 02:15:38;;;;;;;;;3.50;2.50;;;;;19.01;50.91;101921.41;5198347;27;43847;-70
2024/04/14 02:18:03;;;;;;;;;2.00;2.00;;;;;18.92;50.38;101917.31;5199650;27;43866;-70
2024/04/14 02:20:29;;;;;;;;;2.00;2.00;;;;;18.92;51.45;101921.88;5187280;27;43858;-70
2024/04/14 02:22:54;;;;;;;;;4.00;3.00;;;;;18.80;50.73;101909.78;5208153;27;45184;-70
2024/04/14 02:25:19;;;;;;;;;2.25;2.25;;;;;18.84;51.21;101925.84;5190479;27;43893;-70
2024/04/14 02:27:45;;;;;;;;;3.00;3.00;;;;;18.78;50.52;101928.78;5190611;27;43916;-70
2024/04/14 02:30:10;;;;;;;;;2.75;2.75;;;;;18.66;51.04;101921.25;5187195;27;43797;-70
2024/04/14 02:32:39;;;;;;;;;2.50;2.50;;;;;18.65;50.93;101936.59;5209450;27;44961;-70
2024/04/14 02:35:06;;;;;;;;;2.00;2.00;;;;;18.64;51.60;101942.09;5203349;27;44206;-70
2024/04/14 02:37:32;;;;;;;;;2.50;2.50;;;;;18.45;51.13;101913.22;5219834;27;43786;-70
2024/04/14 02:39:57;;;;;;;;;3.50;2.25;;;;;18.72;51.37;101964.25;5190971;27;45366;-70
2024/04/14 02:42:23;;;;;;;;;2.25;2.25;;;;;18.52;51.21;101941.72;5199440;27;43910;-70
2024/04/14 02:44:48;;;;;;;;;4.50;2.50;;;;;18.60;51.04;101971.09;5196982;27;43873;-70
2024/04/14 02:47:17;;;;;;;;;2.75;2.75;;;;;18.44;51.42;101946.63;5220541;27;43882;-70
2024/04/14 02:49:43;;;;;;;;;3.00;2.75;;;;;18.61;50.93;101971.97;5219970;27;44166;-70
2024/04/14 02:52:09;;;;;;;;;2.75;2.75;;;;;18.45;51.24;101950.19;5219374;27;45314;-70
2024/04/14 02:54:34;;;;;;;;;1.75;1.75;;;;;18.44;50.55;101946.63;5220403;27;44042;-70
2024/04/14 02:57:00;;;;;;;;;3.00;2.75;;;;;18.38;51.76;101937.91;5219396;27;43896;-70
2024/04/14 02:59:25;;;;;;;;;2.50;2.50;;;;;18.41;51.19;101948.56;5198212;27;44128;-70
2024/04/14 03:01:50;;;;;;;;;3.50;3.50;;;;;18.55;51.00;101974.97;5218330;27;47164;-70
2024/04/14 03:04:15;;;;;;;;;4.50;3.25;;;;;18.48;51.69;101975.25;5186906;27;45034;-70
2024/04/14 03:06:41;;;;;;;;;3.25;3.00;;;;;18.34;51.97;101947.97;5192400;27;44060;-70
2024/04/14 03:09:06;;;;;;;;;3.00;3.00;;;;;18.39;52.48;101961.28;5194544;27;43858;-69
2024/04/14 03:11:31;;;;;;;;;5.75;4.00;;;;;18.22;52.27;101937.72;5190228;27;43912;-70
2024/04/14 03:13:57;;;;;;;;;4.00;3.00;;;;;18.40;51.53;101977.44;5208249;27;43884;-70
2024/04/14 03:16:22;;;;;;;;;2.75;2.75;;;;;18.31;52.52;101973.31;5207690;27;44082;-70
2024/04/14 03:18:48;;;;;;;;;2.75;2.75;;;;;18.25;51.86;101959.22;5205552;27;43773;-70
2024/04/14 03:21:13;;;;;;;;;2.50;2.50;;;;;18.20;53.29;101966.66;5189055;27;44015;-70
2024/04/14 03:23:39;;;;;;;;;3.00;3.00;;;;;18.04;53.16;101937.63;5208199;27;43909;-70
2024/04/14 03:26:05;;;;;;;;;3.00;3.00;;;;;18.06;53.21;101953.75;5160331;27;43898;-70
2024/04/14 03:28:31;;;;;;;;;4.00;4.00;;;;;18.01;53.81;101953.06;5189871;27;44021;-70
2024/04/14 03:31:01;;;;;;;;;2.75;2.50;;;;;17.93;52.62;101946.19;5212972;27;44071;-70
2024/04/14 03:33:27;;;;;;;;;1.25;1.25;;;;;17.88;53.75;101950.06;5197971;27;44186;-70
2024/04/14 03:36:03;;;;;;;;;0.75;0.75;;;;;18.04;53.53;101982.66;5199472;27;43773;-70
2024/04/14 03:38:29;;;;;;;;;2.75;2.25;;;;;17.83;53.80;101957.44;5186688;27;44223;-70
2024/04/14 03:40:55;;;;;;;;;1.00;1.00;;;;;17.76;53.79;101946.91;5175081;27;45689;-70
2024/04/14 03:43:20;;;;;;;;;3.00;2.00;;;;;17.84;54.49;101973.59;5186838;27;43924;-70
2024/04/14 03:45:45;;;;;;;;;4.25;2.75;;;;;17.71;54.51;101943.53;5206776;27;44071;-70
2024/04/14 03:48:11;;;;;;;;;2.75;2.75;;;;;17.56;54.65;101931.56;5186682;27;43932;-70
2024/04/14 03:50:39;;;;;;;;;3.00;3.00;;;;;17.74;55.08;101959.59;5186388;27;44216;-70
2024/04/14 03:53:04;;;;;;;;;3.00;3.00;;;;;17.56;54.90;101950.47;5156990;27;44114;-70
2024/04/14 03:55:31;;;;;;;;;4.00;4.00;;;;;17.66;55.01;101969.84;5156082;27;44072;-69
2024/04/14 03:57:57;;;;;;;;;3.00;3.00;;;;;17.57;55.16;101960.31;5213388;27;43777;-70
2024/04/14 04:00:22;;;;;;;;;3.00;3.00;;;;;17.64;55.84;101974.44;5214455;27;43948;-70
2024/04/14 04:02:47;;;;;;;;;3.25;2.00;;;;;17.35;55.52;101929.78;5219309;27;43879;-69
2024/04/14 04:05:13;;;;;;;;;3.00;2.00;;;;;17.56;55.92;101960.38;5185129;27;44024;-70
2024/04/14 04:07:38;;;;;;;;;3.00;3.00;;;;;17.50;56.20;101953.41;5186268;27;43991;-70
2024/04/14 04:10:03;;;;;;;;;5.00;3.00;;;;;17.61;55.89;101979.97;5209474;27;44851;-69
2024/04/14 04:12:29;;;;;;;;;4.25;2.75;;;;;17.31;56.51;101936.25;5219411;27;43849;-70
2024/04/14 04:14:54;;;;;;;;;4.00;4.00;;;;;17.37;56.42;101949.47;5210036;27;44126;-69
2024/04/14 04:17:19;;;;;;;;;6.00;4.00;;;;;17.40;56.89;101968.25;5196459;27;44009;-70
2024/04/14 04:19:45;;;;;;;;;4.00;3.00;;;;;17.38;57.60;101967.44;5208241;27;43892;-69
2024/04/14 04:22:10;;;;;;;;;3.00;3.00;;;;;17.53;57.61;102001.88;5215944;27;43993;-69
2024/04/14 04:24:36;;;;;;;;;3.75;3.25;;;;;17.32;56.82;101968.53;5199051;27;43980;-69
2024/04/14 04:27:01;;;;;;;;;5.00;5.00;;;;;17.36;57.55;101974.72;5200798;27;44185;-69
2024/04/14 04:29:28;;;;;;;;;3.00;3.00;;;;;17.17;57.27;101970.06;5189240;27;45028;-70
2024/04/14 04:31:56;;;;;;;;;3.00;2.75;;;;;17.41;57.23;102010.50;5182195;27;44538;-70
2024/04/14 04:34:22;;;;;;;;;3.75;3.00;;;;;17.15;57.75;101971.94;5191940;27;43850;-69
2024/04/14 04:36:51;;;;;;;;;4.75;4.00;;;;;17.32;57.84;102016.25;5188656;27;44396;-70
2024/04/14 04:39:17;;;;;;;;;5.00;4.00;;;;;17.16;58.10;101989.91;5188412;27;44250;-69
2024/04/14 04:41:42;;;;;;;;;3.25;3.25;;;;;17.10;57.92;101979.34;5158906;27;44470;-70
2024/04/14 04:44:10;;;;;;;;;7.00;5.00;;;;;17.14;57.77;102004.38;5187946;27;43911;-69
2024/04/14 04:46:35;;;;;;;;;5.25;5.00;;;;;17.30;58.62;102024.41;5195876;27;44129;-69
2024/04/14 04:49:00;;;;;;;;;5.75;5.75;;;;;17.22;58.08;102002.25;5158824;27;45903;-69
2024/04/14 04:51:29;;;;;;;;;5.50;5.50;;;;;17.17;58.75;102015.03;5188444;27;43998;-69
2024/04/14 04:53:55;;;;;;;;;6.75;5.00;;;;;17.03;58.84;101988.63;5159092;27;43807;-70
2024/04/14 04:56:20;;;;;;;;;4.25;4.00;;;;;17.19;58.81;102021.25;5196782;27;44065;-70
2024/04/14 04:58:48;;;;;;;;;8.25;6.50;;;;;17.02;58.54;102005.75;5191342;27;46489;-70
2024/04/14 05:01:13;;;;;;;;;5.00;5.00;;;;;17.14;58.97;102024.16;5202870;27;44179;-70
2024/04/14 05:03:39;;;;;;;;;7.00;7.00;;;;;16.90;59.97;101995.44;5210921;27;43956;-69
2024/04/14 05:06:05;;;;;;;;;5.50;5.50;;;;;16.96;59.61;102008.69;5208288;27;43912;-69
2024/04/14 05:08:33;;;;;;;;;6.00;6.00;;;;;16.87;59.54;101996.44;5211888;27;45142;-70
2024/04/14 05:10:59;;;;;;;;;8.00;7.50;;;;;16.76;59.20;101990.56;5221230;27;43853;-69
2024/04/14 05:13:27;;;;;;;;;6.75;6.75;;;;;16.80;59.96;102011.06;5217805;27;44117;-69
2024/04/14 05:15:53;;;;;;;;;7.00;6.00;;;;;16.81;60.11;102016.41;5192522;27;43937;-69
2024/04/14 05:18:19;;;;;;;;;7.50;6.00;;;;;16.85;60.41;102030.66;5229161;27;45190;-70
2024/04/14 05:20:45;;;;;;;;;7.25;7.25;;;;;16.71;60.40;102011.44;5221157;27;43921;-69
2024/04/14 05:23:10;;;;;;;;;6.50;6.50;;;;;16.81;60.50;102042.50;5244935;27;43791;-69
2024/04/14 05:25:36;;;;;;;;;5.00;5.00;;;;;16.80;60.57;102036.19;5220949;27;43967;-69
2024/04/14 05:28:02;;;;;;;;;10.50;7.00;;;;;16.77;60.66;102032.75;5230773;27;44166;-69
2024/04/14 05:30:28;;;;;;;;;7.00;7.00;;;;;16.66;60.43;102022.38;5205701;27;44265;-69
2024/04/14 05:32:53;;;;;;;;;8.00;7.25;;;;;16.57;61.23;102015.53;5254421;27;43922;-69
2024/04/14 05:35:18;;;;;;;;;8.00;6.25;;;;;16.56;60.61;102029.06;5242781;27;43788;-69
2024/04/14 05:37:44;;;;;;;;;6.75;6.75;;;;;16.55;61.90;102033.53;5220291;27;44860;-69
2024/04/14 05:40:10;;;;;;;;;8.25;7.25;;;;;16.41;61.50;102023.28;5191549;27;43873;-69
2024/04/14 05:42:35;;;;;;;;;7.00;7.00;;;;;16.40;62.16;102029.59;5214265;27;43979;-70
2024/04/14 05:45:01;;;;;;;;;7.25;7.25;;;;;16.48;61.72;102043.66;5224773;27;44537;-70
2024/04/14 05:47:26;;;;;;;;;9.25;8.25;;;;;16.37;61.95;102028.81;5222550;27;45605;-69
2024/04/14 05:49:52;;;;;;;;;9.00;8.75;;;;;16.53;62.25;102072.28;5254511;27;43840;-69
2024/04/14 05:52:17;;;;;;;;;11.00;10.00;;;;;16.18;62.75;102021.41;5254227;27;43870;-69
2024/04/14 05:54:42;;;;;;;;;9.50;9.50;;;;;16.26;62.53;102040.88;5254407;27;43954;-69
2024/04/14 05:57:07;;;;;;;;;7.00;6.00;;;;;16.20;63.52;102038.38;5249615;27;45117;-69
2024/04/14 05:59:33;;;;;;;;;11.50;7.00;;;;;16.35;64.17;102065.72;5215896;27;43937;-69
2024/04/14 06:01:58;;;;;;;;;9.50;7.75;;;;;16.22;63.94;102049.13;5247411;27;43979;-69
2024/04/14 06:04:23;;;;;;;;;10.75;8.75;;;;;15.98;64.19;102018.53;5246882;27;43930;-69
2024/04/14 06:06:50;;;;;;;;;11.25;10.50;;;;;16.12;64.06;102043.16;5233831;27;44084;-69
2024/04/14 06:09:16;;;;;;;;;8.00;8.00;;;;;16.21;64.45;102056.31;5206437;27;43793;-71
2024/04/14 06:11:41;;;;;;;;;7.75;7.25;;;;;16.05;65.99;102038.94;5191064;27;43919;-71
2024/04/14 06:14:06;;;;;;;;;7.75;6.50;;;;;16.02;65.17;102042.63;5240950;27;43825;-74
2024/04/14 06:16:32;;;;;;;;;9.50;7.25;;;;;16.18;65.80;102063.63;5226959;27;43824;-74
2024/04/14 06:18:57;;;;;;;;;7.75;6.50;;;;;16.03;66.58;102055.16;5210861;27;43874;-75
2024/04/14 06:21:23;;;;;;;;;8.00;8.00;;;;;16.00;66.27;102049.84;5197576;27;43865;-75
2024/04/14 06:23:48;;;;;;;;;8.00;7.25;;;;;16.21;66.75;102068.94;5211044;27;43829;-75
2024/04/14 06:26:13;;;;;;;;;8.00;7.25;;;;;16.20;66.68;102067.16;5197795;27;44119;-75
2024/04/14 06:28:39;;;;;;;;;7.00;7.00;;;;;16.04;67.32;102043.44;5190303;27;44552;-75
2024/04/14 06:31:04;;;;;;;;;7.00;7.00;;;;;16.19;67.20;102066.28;5215807;27;44128;-75
2024/04/14 06:33:29;;;;;;;;;8.00;8.00;;;;;16.06;66.69;102043.41;5215416;27;44470;-74
2024/04/14 06:35:55;;;;;;;;;10.00;8.00;;;;;16.13;67.28;102071.00;5165314;27;45638;-74
2024/04/14 06:38:21;;;;;;;;;8.25;8.25;;;;;15.99;67.62;102060.69;5183852;27;44838;-75
2024/04/14 06:40:47;;;;;;;;;8.25;8.25;;;;;16.02;67.60;102064.19;5213330;27;44030;-75
2024/04/14 06:43:12;;;;;;;;;8.25;8.00;;;;;16.00;67.72;102063.31;5208415;27;43929;-75
2024/04/14 06:45:38;;;;;;;;;6.75;6.75;;;;;16.17;67.94;102092.41;5219519;27;43928;-76
2024/04/14 06:48:05;;;;;;;;;7.75;7.00;;;;;16.16;67.19;102090.63;5220450;27;44135;-76
2024/04/14 06:50:30;;;;;;;;;9.50;6.00;;;;;15.99;67.20;102055.28;5185596;27;44019;-76
2024/04/14 06:52:55;;;;;;;;;8.00;8.00;;;;;16.05;67.73;102068.56;5215740;27;43936;-76
2024/04/14 06:55:21;;;;;;;;;12.50;12.50;;;;;16.05;68.14;102065.88;5182006;27;45152;-76
2024/04/14 06:57:46;;;;;;;;;11.25;11.25;;;;;16.08;67.95;102076.53;5219304;27;43914;-76
2024/04/14 07:00:12;;;;;;;;;11.25;8.25;;;;;15.99;68.38;102074.16;5220416;27;43844;-78
2024/04/14 07:02:37;;;;;;;;;8.00;8.00;;;;;16.16;69.17;102104.09;5219227;27;43777;-73
2024/04/14 07:05:03;;;;;;;;;6.00;6.00;;;;;16.17;68.89;102095.09;5189024;27;48716;-73
2024/04/14 07:07:28;;;;;;;;;9.25;9.25;;;;;16.09;68.66;102078.31;5190171;27;44575;-74
2024/04/14 07:09:54;;;;;;;;;9.50;9.50;;;;;16.05;68.37;102064.03;5219156;27;43872;-73
2024/04/14 07:12:20;;;;;;;;;10.25;10.25;;;;;16.15;69.32;102086.16;5205262;27;43998;-71
2024/04/14 07:14:45;;;;;;;;;10.50;10.50;;;;;16.15;69.47;102094.25;5219570;27;44360;-71
2024/04/14 07:17:11;;;;;;;;;11.50;9.25;;;;;15.97;69.45;102087.69;5249147;27;45411;-71
2024/04/14 07:19:36;;;;;;;;;12.25;9.50;;;;;16.01;68.56;102102.81;5227299;27;44345;-72
2024/04/14 07:22:02;;;;;;;;;12.00;9.25;;;;;15.78;68.99;102073.06;5249883;27;43986;-71
2024/04/14 07:24:27;;;;;;;;;12.25;11.50;;;;;15.76;69.84;102067.72;5250910;27;44203;-72
2024/04/14 07:26:52;;;;;;;;;9.25;9.25;;;;;15.82;69.60;102081.00;5253423;27;43868;-71
2024/04/14 07:29:18;;;;;;;;;9.00;9.00;;;;;15.92;69.95;102097.72;5253326;27;44422;-72
2024/04/14 07:31:43;;;;;;;;;11.00;9.25;;;;;15.70;70.50;102057.13;5253551;27;44174;-72
2024/04/14 07:34:09;;;;;;;;;7.25;7.25;;;;;15.71;70.41;102057.06;5254110;27;46010;-72
2024/04/14 07:36:35;;;;;;;;;10.00;8.75;;;;;15.87;70.13;102076.34;5252511;27;43934;-71
2024/04/14 07:39:00;;;;;;;;;8.50;8.50;;;;;15.85;69.95;102075.50;5253300;27;44293;-72
2024/04/14 07:41:25;;;;;;;;;11.50;11.50;;;;;15.80;70.75;102060.44;5245915;27;43986;-72
2024/04/14 07:43:52;;;;;;;;;10.50;9.50;;;;;16.06;70.31;102099.97;5244442;27;44008;-72
2024/04/14 07:46:17;;;;;;;;;10.00;10.00;;;;;15.79;70.65;102061.38;5251472;27;44243;-69
2024/04/14 07:48:43;;;;;;;;;11.50;9.00;;;;;15.77;69.87;102066.81;5238559;27;43856;-70
2024/04/14 07:51:08;;;;;;;;;11.25;10.00;;;;;15.81;70.16;102087.31;5253426;27;43899;-70
2024/04/14 07:53:34;;;;;;;;;9.50;8.25;;;;;15.62;70.43;102057.41;5252830;27;44215;-70
2024/04/14 07:56:00;;;;;;;;;9.25;8.00;;;;;15.75;71.37;102084.78;5252898;27;45292;-69
2024/04/14 07:58:25;;;;;;;;;9.75;8.50;;;;;15.67;71.98;102082.34;5246252;27;44091;-70
2024/04/14 08:00:51;;;;;;;;;12.00;9.50;;;;;15.46;70.83;102054.31;5233645;27;43855;-69
2024/04/14 08:03:17;;;;;;;;;9.00;8.00;;;;;15.51;71.96;102065.78;5250264;27;44930;-69
2024/04/14 08:05:43;;;;;;;;;12.75;7.75;;;;;15.49;71.53;102046.13;5250821;27;44259;-69
2024/04/14 08:08:09;;;;;;;;;8.00;8.00;;;;;15.74;72.38;102078.53;5253131;27;44095;-69
2024/04/14 08:10:35;;;;;;;;;9.00;8.50;;;;;15.42;72.24;102019.47;5217378;27;44045;-70
2024/04/14 08:13:00;;;;;;;;;11.25;9.00;;;;;15.60;71.73;102047.59;5201793;27;46943;-69
2024/04/14 08:15:26;;;;;;;;;7.00;5.00;;;;;15.77;71.64;102063.22;5190979;27;44375;-69
2024/04/14 08:17:52;;;;;;;;;9.75;7.75;;;;;15.88;71.79;102072.69;5241515;27;43918;-69
2024/04/14 08:20:18;;;;;;;;;9.00;9.00;;;;;15.82;72.01;102056.78;5252521;27;44027;-70
2024/04/14 08:22:43;;;;;;;;;8.75;8.75;;;;;15.80;71.47;102042.47;5247654;27;43884;-70
2024/04/14 08:25:12;;;;;;;;;8.50;7.00;;;;;15.83;71.69;102046.88;5224333;27;43964;-70
2024/04/14 08:27:37;;;;;;;;;9.50;9.00;;;;;15.88;71.07;102043.06;5220118;27;44039;-70
2024/04/14 08:30:03;;;;;;;;;10.75;9.25;;;;;16.07;72.27;102069.38;5251893;27;44109;-70
2024/04/14 08:32:28;;;;;;;;;11.00;8.75;;;;;15.81;71.10;102028.06;5251921;27;45600;-69
2024/04/14 08:34:55;;;;;;;;;8.50;8.50;;;;;16.12;71.22;102064.72;5238770;27;44065;-70
2024/04/14 08:37:39;;;;;;;;;;;;;;;;;;;;;
2024/04/14 08:40:08;;;;;;;;;8.50;8.50;;;;;15.86;71.46;102009.06;5239772;27;72036;-68
2024/04/14 08:42:33;;;;;;;;;9.50;9.00;;;;;16.05;71.43;102033.53;5219276;27;45868;-70
2024/04/14 08:45:00;;;;;;;;;7.75;7.75;;;;;16.01;71.94;102022.00;5246212;27;43931;-70
2024/04/14 08:47:28;;;;;;;;;7.75;7.75;;;;;16.04;72.38;102027.28;5230242;27;43877;-70
2024/04/14 08:49:55;;;;;;;;;8.00;7.00;;;;;16.12;72.37;102032.38;5252132;27;44069;-70
2024/04/14 08:52:22;;;;;;;;;9.50;8.00;;;;;16.10;71.69;102020.78;5252001;27;44197;-70
2024/04/14 08:54:47;;;;;;;;;6.25;6.25;;;;;16.39;71.07;102057.50;5252013;27;43892;-70
2024/04/14 08:57:13;;;;;;;;;9.75;8.75;;;;;16.19;71.30;102023.19;5251642;27;43745;-70
2024/04/14 08:59:44;;;;;;;;;7.50;7.25;;;;;16.28;71.67;102020.13;5250373;27;43807;-70
2024/04/14 09:02:10;;;;;;;;;8.75;7.00;;;;;16.26;72.33;102018.44;5215892;27;45922;-70
2024/04/14 09:04:37;;;;;;;;;7.50;6.50;;;;;16.34;71.89;102023.53;5245258;27;44050;-70
2024/04/14 09:07:02;;;;;;;;;9.00;6.00;;;;;16.36;71.23;102030.66;5245625;27;43979;-70
2024/04/14 09:09:28;;;;;;;;;7.50;7.50;;;;;16.46;70.95;102042.84;5216643;27;44038;-69
2024/04/14 09:11:56;;;;;;;;;6.50;6.50;;;;;16.51;70.83;102045.38;5247435;27;43811;-69
2024/04/14 09:14:22;;;;;;;;;9.25;8.25;;;;;16.52;70.98;102040.88;5230061;27;44833;-69
2024/04/14 09:16:49;;;;;;;;;7.75;7.75;;;;;16.74;71.20;102067.91;5227324;27;44372;-70
2024/04/14 09:19:15;;;;;;;;;6.25;6.25;;;;;16.52;70.74;102036.34;5249654;27;43963;-69
2024/04/14 09:21:40;;;;;;;;;8.50;7.00;;;;;16.64;70.46;102040.44;5245274;27;45571;-69
2024/04/14 09:24:06;;;;;;;;;6.75;6.50;;;;;16.77;70.22;102057.91;5236517;27;44041;-70
2024/04/14 09:26:31;;;;;;;;;5.00;5.00;;;;;16.54;69.77;102015.63;5238632;27;43909;-71
2024/04/14 09:29:04;;;;;;;;;7.75;7.75;;;;;16.86;70.99;102064.81;5245907;27;43996;-71
2024/04/14 09:31:30;;;;;;;;;8.50;7.00;;;;;16.70;70.57;102024.00;5187235;27;46742;-69
2024/04/14 09:33:56;;;;;;;;;7.25;7.25;;;;;16.67;70.47;102018.72;5224597;27;44026;-69
2024/04/14 09:36:25;;;;;;;;;6.00;6.00;;;;;16.86;70.68;102045.94;5249142;27;44010;-69
2024/04/14 09:38:52;;;;;;;;;7.50;6.50;;;;;16.73;70.18;102031.13;5250310;27;43915;-69
2024/04/14 09:41:19;;;;;;;;;7.50;7.50;;;;;16.77;70.88;102025.56;5235518;27;44161;-69
2024/04/14 09:43:44;;;;;;;;;7.00;7.00;;;;;16.79;70.08;102018.28;5189760;27;44239;-69
2024/04/14 09:46:14;;;;;;;;;9.00;7.75;;;;;16.78;69.78;102015.63;5219799;27;44434;-69
2024/04/14 09:48:49;;;;;;;;;7.00;7.00;;;;;16.87;70.27;102014.44;5218162;27;44055;-68
2024/04/14 09:51:26;;;;;;;;;8.00;7.75;;;;;16.83;69.75;102013.66;5248782;27;44248;-69
2024/04/14 09:54:10;;;;;;;;;7.00;6.00;;;;;16.89;70.24;102016.16;5217537;27;44434;-69
2024/04/14 09:56:36;;;;;;;;;5.25;5.25;;;;;16.97;70.55;102023.91;5212178;27;43927;-68
2024/04/14 09:59:01;;;;;;;;;8.00;8.00;;;;;16.91;69.78;102005.31;5247731;27;44064;-68
2024/04/14 10:01:33;;;;;;;;;7.50;7.50;;;;;16.98;69.25;102004.13;5248316;27;44150;-68
2024/04/14 10:04:14;;;;;;;;;;;;;;;;;;;;;
2024/04/14 10:06:44;;;;;;;;;6.00;6.00;;;;;17.08;69.51;101996.53;5230533;27;68227;-69
2024/04/14 10:09:14;;;;;;;;;8.00;7.00;;;;;17.21;69.25;102016.69;5241288;27;44379;-69
2024/04/14 10:11:42;;;;;;;;;8.25;8.00;;;;;17.20;68.90;102010.41;5248302;27;44376;-69
2024/04/14 10:14:11;;;;;;;;;7.00;7.00;;;;;17.20;69.03;102006.84;5248788;27;44174;-69
2024/04/14 10:16:50;;;;;;;;;7.50;7.50;;;;;17.35;69.00;102010.72;5222359;27;44422;-69
2024/04/14 10:19:21;;;;;;;;;8.50;7.25;;;;;17.34;68.82;102006.25;5194572;27;44274;-69
2024/04/14 10:21:47;;;;;;;;;7.00;7.00;;;;;17.38;69.37;102000.69;5200131;27;45130;-69
2024/04/14 10:24:12;;;;;;;;;6.25;5.00;;;;;17.55;69.01;102024.28;5212406;27;44091;-69
2024/04/14 10:26:38;;;;;;;;;6.00;6.00;;;;;17.30;68.50;101983.94;5170892;27;44484;-69
2024/04/14 10:29:06;;;;;;;;;7.50;6.25;;;;;17.54;68.88;102011.75;5214932;27;44075;-69
2024/04/14 10:31:35;;;;;;;;;6.00;6.00;;;;;17.47;68.04;101993.16;5215495;27;44912;-69
2024/04/14 10:34:06;;;;;;;;;6.50;6.50;;;;;17.56;68.30;102003.59;5185977;27;45119;-69
2024/04/14 10:36:35;;;;;;;;;6.00;6.00;;;;;17.66;68.68;102031.94;5215444;27;44357;-69
2024/04/14 10:39:02;;;;;;;;;7.25;7.25;;;;;17.55;68.00;101996.41;5199850;27;44056;-69
2024/04/14 10:41:30;;;;;;;;;10.75;7.25;;;;;17.58;67.52;101990.91;5212830;27;44234;-69
2024/04/14 10:43:56;;;;;;;;;6.75;6.75;;;;;17.54;68.03;101984.75;5195173;27;43968;-68
2024/04/14 10:46:22;;;;;;;;;11.00;9.00;;;;;17.64;68.19;101987.03;5205694;27;43981;-68
2024/04/14 10:48:48;;;;;;;;;7.25;6.00;;;;;17.61;67.73;101971.88;5202185;27;43941;-69
2024/04/14 10:51:13;;;;;;;;;6.00;6.00;;;;;17.72;68.10;101983.06;5215273;27;44119;-72
2024/04/14 10:53:42;;;;;;;;;6.00;6.00;;;;;17.62;67.68;101945.75;5212951;27;43962;-71
2024/04/14 10:56:07;;;;;;;;;7.75;6.25;;;;;17.69;67.24;101947.22;5200608;27;44437;-68
2024/04/14 10:58:34;;;;;;;;;6.25;6.25;;;;;17.84;67.13;101965.50;5204844;27;44282;-70
2024/04/14 11:01:00;;;;;;;;;5.50;4.50;;;;;17.89;66.51;101968.91;5215644;27;44322;-69
2024/04/14 11:03:26;;;;;;;;;5.00;5.00;;;;;17.83;67.04;101942.13;5186435;27;44230;-69
2024/04/14 11:05:53;;;;;;;;;7.50;6.50;;;;;17.89;67.00;101949.09;5204571;27;43920;-69
2024/04/14 11:08:23;;;;;;;;;8.50;6.00;;;;;17.97;67.23;101941.53;5203220;27;43899;-69
2024/04/14 11:50:15;;;;;;;;;;;;;;;;;;;;;
2024/04/14 11:53:00;;;;;;;;;3.75;3.75;;;;;18.50;63.49;101883.25;5460709;26;71575;-67
2024/04/14 11:55:34;;;;;;;;;2.75;2.75;;;;;18.55;63.27;101878.50;5475860;26;44029;-67
2024/04/14 11:58:22;;;;;;;;;2.50;0.50;;;;;18.59;62.39;101873.81;5453731;25;44439;-67
2024/04/14 12:00:59;;;;;;;;;2.25;1.00;;;;;18.81;62.63;101893.47;5456038;25;44003;-67
2024/04/14 12:03:37;;;;;;;;;;;;;;;;;;;;;
2024/04/14 12:06:08;;;;;;;;;4.25;4.25;;;;;18.93;63.06;101900.16;5459176;26;66081;-67
2024/04/14 12:09:07;;;;;;;;;;;;;;;;;;;;;